createdAt,value
2023-04-18T17:15:15.227Z,101670.63
2023-04-18T17:20:20.811Z,101675.44
2023-04-18T17:25:26.251Z,101661.03
2023-04-18T17:30:34.183Z,101678.38
2023-04-18T17:35:39.574Z,101666.59
2023-04-18T17:40:45.070Z,101680.66
2023-04-18T17:45:53.201Z,101682.53
2023-04-18T17:50:58.513Z,101689.69
2023-04-18T17:56:03.963Z,101684.72
2023-04-18T18:01:20.093Z,101695.22
2023-04-18T18:06:27.913Z,101702.41
2023-04-18T18:11:33.301Z,101701.75
2023-04-18T18:16:44.310Z,101707.88
2023-04-18T18:21:49.961Z,101705.34
2023-04-18T18:26:55.380Z,101709.72
2023-04-18T18:32:03.739Z,101708.03
2023-04-18T18:37:09.031Z,101717.59
2023-04-18T18:42:14.226Z,101713.38
2023-04-18T18:47:22.977Z,101718.63
2023-04-18T18:52:29.894Z,101731.75
2023-04-18T18:57:35.157Z,101744.91
2023-04-18T19:02:43.077Z,101744.09
2023-04-18T19:07:48.465Z,101752.91
2023-04-18T19:12:53.922Z,101756.44
2023-04-18T19:18:01.748Z,101762.50
2023-04-18T19:23:07.019Z,101762.59
2023-04-18T19:28:13.053Z,101772.16
2023-04-18T19:33:21.407Z,101774.78
2023-04-18T19:38:26.772Z,101786.81
2023-04-18T19:43:31.984Z,101791.88
2023-04-18T19:48:39.838Z,101787.44
2023-04-18T19:53:45.197Z,101781.34
2023-04-18T19:58:51.187Z,101785.56
2023-04-18T20:04:00.681Z,101794.97
2023-04-18T20:09:08.748Z,101788.91
2023-04-18T20:14:13.987Z,101794.91
2023-04-18T20:19:24.698Z,101797.50
2023-04-18T20:24:31.890Z,101795.75
2023-04-18T20:29:37.154Z,101794.91
2023-04-18T20:34:45.829Z,101792.34
2023-04-18T20:39:51.151Z,101788.88
2023-04-18T20:44:58.889Z,101806.13
2023-04-18T20:50:07.156Z,101797.53
2023-04-18T20:55:12.886Z,101800.13
2023-04-18T21:00:18.545Z,101809.59
2023-04-18T21:05:26.821Z,101813.88
2023-04-18T21:10:32.031Z,101810.44
2023-04-18T21:15:38.426Z,101819.13
2023-04-18T21:20:46.320Z,101816.59
2023-04-18T21:25:51.496Z,101821.78
2023-04-18T21:30:56.770Z,101822.69
2023-04-18T21:36:04.566Z,101823.56
2023-04-18T21:41:09.881Z,101823.56
2023-04-18T21:46:15.322Z,101830.53
2023-04-18T21:51:23.283Z,101821.09
2023-04-18T21:56:28.788Z,101829.75
2023-04-18T22:01:34.579Z,101822.84
2023-04-18T22:06:42.522Z,101822.81
2023-04-18T22:11:47.824Z,101821.09
2023-04-18T22:16:54.252Z,101820.22
2023-04-18T22:22:02.286Z,101822.00
2023-04-18T22:27:07.660Z,101819.44
